Terminal Aerodrome Forecast
Issued by NWS Amarillo, TX

Home | Current Version | Previous Version | Text Only | Print | Product List | Glossary On
Versions: 1 2 3 4 5 6 7 8 9 10 11 12 13 14 15 16 17 18
000
FTUS44 KAMA 241720
TAFGUY
TAF
KGUY 241720Z 2418/2518 01018G26KT P6SM OVC025
     FM250600 36016G23KT 5SM -SHRA BR OVC015
     FM251200 35014KT P6SM BKN025=

USA.gov is the U.S. government's official web portal to all federal, state and local government web resources and services.